Time;durP1;ratioP1;P1;durP2;ratioP2;P2;SDS_P1;SDS_P2;PMS_P1;PMS_P2;Temp;Humidity;BMP_temperature;BMP_pressure;BME280_temperature;BME280_humidity;BME280_pressure;Samples;Min_cycle;Max_cycle;Signal;HPM_P1;HPM_P2
2023/09/21 00:00:34;;;;;;;4.40;2.15;;;17.70;99.90;;;;;;5125464;27;20041;-64
2023/09/21 00:03:00;;;;;;;5.63;1.98;;;17.70;99.90;;;;;;5126389;27;20382;-63
2023/09/21 00:05:31;;;;;;;6.47;2.35;;;17.60;99.90;;;;;;5125727;27;21337;-64
2023/09/21 00:07:57;;;;;;;4.78;2.33;;;17.70;99.90;;;;;;5125018;27;20035;-64
2023/09/21 00:10:23;;;;;;;6.43;2.17;;;17.60;99.90;;;;;;5125637;27;20039;-62
2023/09/21 00:12:49;;;;;;;5.97;2.28;;;17.60;99.90;;;;;;5126059;27;23066;-63
2023/09/21 00:15:19;;;;;;;4.70;2.38;;;17.60;99.90;;;;;;5107142;27;20092;-64
2023/09/21 00:17:46;;;;;;;6.80;2.00;;;17.60;99.90;;;;;;5125641;27;20450;-64
2023/09/21 00:20:25;;;;;;;6.85;2.28;;;17.60;99.90;;;;;;5125272;27;20447;-64
2023/09/21 00:22:53;;;;;;;6.07;2.17;;;17.70;99.90;;;;;;5125174;27;20795;-63
2023/09/21 00:25:19;;;;;;;5.85;2.00;;;17.70;99.90;;;;;;5124574;27;20042;-64
2023/09/21 00:27:45;;;;;;;7.22;2.30;;;17.60;99.90;;;;;;5104559;27;20035;-64
2023/09/21 00:30:12;;;;;;;4.22;2.00;;;17.70;99.90;;;;;;5106716;27;20141;-62
2023/09/21 00:32:38;;;;;;;4.35;2.38;;;17.60;99.90;;;;;;5125471;27;20035;-63
2023/09/21 00:35:09;;;;;;;6.57;2.33;;;17.70;99.90;;;;;;5125411;27;20223;-64
2023/09/21 00:37:35;;;;;;;3.63;1.73;;;17.70;99.90;;;;;;5125292;27;20023;-62
2023/09/21 00:40:05;;;;;;;4.00;1.90;;;17.70;99.90;;;;;;5124954;27;20035;-64
2023/09/21 00:42:31;;;;;;;5.72;2.20;;;17.70;99.90;;;;;;5124954;27;20262;-64
2023/09/21 00:44:57;;;;;;;5.10;2.10;;;17.80;99.90;;;;;;5124470;27;20214;-64
2023/09/21 00:47:22;;;;;;;4.93;2.22;;;17.70;99.90;;;;;;5124794;27;20115;-63
2023/09/21 00:49:49;;;;;;;6.22;2.33;;;17.70;99.90;;;;;;5124711;27;20054;-63
2023/09/21 00:52:16;;;;;;;5.25;2.10;;;17.80;99.90;;;;;;5124107;27;20051;-64
2023/09/21 00:54:43;;;;;;;6.10;1.85;;;17.80;99.90;;;;;;5125110;27;20035;-63
2023/09/21 00:57:11;;;;;;;4.63;2.10;;;17.80;99.90;;;;;;5124658;27;20059;-63
2023/09/21 00:59:39;;;;;;;5.47;2.00;;;17.80;99.90;;;;;;5124073;27;20176;-62
2023/09/21 01:02:06;;;;;;;5.22;2.13;;;17.70;99.90;;;;;;5124332;27;20070;-63
2023/09/21 01:04:32;;;;;;;5.13;2.03;;;17.80;99.90;;;;;;5123012;27;20058;-63
2023/09/21 01:06:57;;;;;;;7.72;2.33;;;17.70;99.90;;;;;;5124949;27;20039;-64
2023/09/21 01:09:25;;;;;;;5.40;2.00;;;17.80;99.90;;;;;;5124701;27;20168;-63
2023/09/21 01:11:51;;;;;;;6.57;1.98;;;17.70;99.90;;;;;;5106745;27;20114;-63
2023/09/21 01:14:17;;;;;;;4.00;2.00;;;17.80;99.90;;;;;;5124440;27;20157;-63
2023/09/21 01:16:43;;;;;;;5.88;1.90;;;17.80;99.90;;;;;;5124487;27;20025;-64
2023/09/21 01:19:09;;;;;;;5.20;2.17;;;17.80;99.90;;;;;;5105293;27;20031;-64
2023/09/21 01:21:40;;;;;;;4.38;1.80;;;17.80;99.90;;;;;;5124599;27;20045;-63
2023/09/21 01:24:11;;;;;;;4.43;1.90;;;17.80;99.90;;;;;;5123875;27;20039;-63
2023/09/21 01:26:37;;;;;;;4.63;2.17;;;17.80;99.90;;;;;;5124471;27;20546;-64
2023/09/21 01:29:03;;;;;;;4.28;1.85;;;17.90;99.90;;;;;;5123638;27;20035;-63
2023/09/21 01:31:29;;;;;;;8.82;2.40;;;17.90;99.90;;;;;;5123965;27;20363;-63
2023/09/21 01:33:58;;;;;;;4.47;1.95;;;17.90;99.90;;;;;;5124455;27;20079;-63
2023/09/21 01:36:24;;;;;;;6.78;2.13;;;17.90;99.90;;;;;;5123494;27;20046;-64
2023/09/21 01:38:52;;;;;;;6.95;1.90;;;18.00;99.90;;;;;;5106528;27;20035;-64
2023/09/21 01:41:19;;;;;;;5.18;2.13;;;18.00;99.90;;;;;;5124420;27;20038;-62
2023/09/21 01:43:45;;;;;;;4.97;1.95;;;18.00;99.90;;;;;;5124087;27;20082;-64
2023/09/21 01:46:10;;;;;;;5.60;2.30;;;18.00;99.90;;;;;;5123039;27;20031;-64
2023/09/21 01:48:36;;;;;;;5.72;2.47;;;17.90;99.90;;;;;;5123451;27;20026;-63
2023/09/21 01:51:02;;;;;;;5.65;2.08;;;18.00;99.90;;;;;;5123249;27;20042;-64
2023/09/21 01:53:28;;;;;;;4.60;2.40;;;18.00;99.90;;;;;;5124097;28;21291;-63
2023/09/21 01:55:54;;;;;;;4.72;2.20;;;18.00;99.90;;;;;;5123896;28;20035;-63
2023/09/21 01:58:23;;;;;;;4.80;2.13;;;18.00;99.90;;;;;;5124087;28;20038;-63
2023/09/21 02:00:50;;;;;;;5.10;1.95;;;18.00;99.90;;;;;;5123883;28;20031;-64
2023/09/21 02:03:22;;;;;;;4.55;2.00;;;18.10;99.90;;;;;;5123325;28;20038;-64
2023/09/21 02:05:48;;;;;;;6.13;2.03;;;18.00;99.90;;;;;;5123169;28;20567;-63
2023/09/21 02:08:17;;;;;;;7.50;2.30;;;18.00;99.90;;;;;;5123674;28;20039;-63
2023/09/21 02:10:44;;;;;;;4.50;1.85;;;18.00;99.90;;;;;;5123428;28;20031;-64
2023/09/21 02:13:10;;;;;;;5.57;1.83;;;18.00;99.90;;;;;;5123961;28;20051;-63
2023/09/21 02:15:38;;;;;;;3.63;2.00;;;18.00;99.90;;;;;;5108966;27;20493;-64
2023/09/21 02:18:05;;;;;;;5.70;2.10;;;18.00;99.90;;;;;;5127522;27;20043;-64
2023/09/21 02:20:31;;;;;;;3.85;1.95;;;18.00;99.90;;;;;;5128249;27;20035;-63
2023/09/21 02:22:59;;;;;;;5.28;2.05;;;18.00;99.90;;;;;;5127876;27;20054;-64
2023/09/21 02:25:25;;;;;;;7.38;2.20;;;18.00;99.90;;;;;;5127150;27;20043;-62
2023/09/21 02:27:51;;;;;;;5.97;2.10;;;18.00;99.90;;;;;;5127131;27;20038;-64
2023/09/21 02:30:22;;;;;;;4.47;1.90;;;18.00;99.90;;;;;;5127153;27;20039;-63
2023/09/21 02:32:49;;;;;;;5.85;1.92;;;18.00;99.90;;;;;;5127223;27;20042;-64
2023/09/21 02:35:17;;;;;;;4.72;1.98;;;18.00;99.90;;;;;;5127731;27;20038;-64
2023/09/21 02:37:46;;;;;;;5.85;2.10;;;17.90;99.90;;;;;;5127663;27;20035;-64
2023/09/21 02:40:17;;;;;;;4.97;2.13;;;17.90;99.90;;;;;;5128225;27;20034;-64
2023/09/21 02:42:43;;;;;;;5.72;2.10;;;17.90;99.90;;;;;;5127731;27;20042;-64
2023/09/21 02:45:10;;;;;;;4.75;2.17;;;17.90;99.90;;;;;;5127850;27;20037;-64
2023/09/21 02:47:37;;;;;;;8.70;2.30;;;17.90;99.90;;;;;;5126639;27;20445;-63
2023/09/21 02:50:20;;;;;;;7.00;2.08;;;17.90;99.90;;;;;;5109491;27;20047;-64
2023/09/21 02:52:49;;;;;;;4.43;1.90;;;17.90;99.90;;;;;;5126357;27;20541;-64
2023/09/21 02:55:20;;;;;;;5.68;1.80;;;17.80;99.90;;;;;;5108674;27;20176;-63
2023/09/21 02:57:49;;;;;;;4.30;2.05;;;17.80;99.90;;;;;;5126941;27;20032;-64
2023/09/21 03:00:49;;;;;;;4.10;1.80;;;17.80;99.90;;;;;;5127288;27;20102;-62
2023/09/21 03:03:12;;;;;;;5.03;2.10;;;17.80;99.90;;;;;;5121222;27;20054;-61
2023/09/21 03:05:42;;;;;;;4.45;1.77;;;17.80;99.90;;;;;;5087416;28;20059;-61
2023/09/21 03:08:13;;;;;;;4.80;2.28;;;17.80;99.90;;;;;;5106114;28;20036;-63
2023/09/21 03:10:40;;;;;;;4.47;1.92;;;17.80;99.90;;;;;;5105550;28;20517;-63
2023/09/21 03:13:06;;;;;;;4.55;2.10;;;17.80;99.90;;;;;;5106099;28;20035;-62
2023/09/21 03:15:36;;;;;;;5.28;1.90;;;17.70;99.90;;;;;;5104262;28;20059;-62
2023/09/21 03:18:08;;;;;;;4.45;2.08;;;17.70;99.90;;;;;;5106059;28;20345;-64
2023/09/21 03:20:37;;;;;;;4.53;2.03;;;17.70;99.90;;;;;;5106055;28;20467;-63
2023/09/21 03:23:09;;;;;;;4.40;1.85;;;17.70;99.90;;;;;;5087674;28;20035;-64
2023/09/21 03:25:40;;;;;;;4.55;2.15;;;17.70;99.90;;;;;;5104094;28;20039;-64
2023/09/21 03:28:13;;;;;;;4.88;1.90;;;17.60;99.90;;;;;;5105983;28;20499;-63
2023/09/21 03:30:44;;;;;;;4.43;2.10;;;17.60;99.90;;;;;;5105874;28;20156;-64
2023/09/21 03:33:10;;;;;;;6.32;2.20;;;17.60;99.90;;;;;;5106050;28;20040;-63
2023/09/21 03:35:37;;;;;;;5.22;1.95;;;17.60;99.90;;;;;;5104947;28;20383;-64
2023/09/21 03:38:06;;;;;;;5.65;1.98;;;17.70;99.90;;;;;;5106067;28;20044;-63
2023/09/21 03:40:32;;;;;;;4.65;2.10;;;17.70;99.90;;;;;;5105708;28;20394;-63
2023/09/21 03:42:59;;;;;;;3.75;1.85;;;17.70;99.90;;;;;;5104668;28;20031;-63
2023/09/21 03:45:26;;;;;;;5.32;2.40;;;17.70;99.90;;;;;;5105915;28;20062;-64
2023/09/21 03:47:52;;;;;;;4.90;1.80;;;17.80;99.90;;;;;;5104846;28;20139;-63
2023/09/21 03:50:19;;;;;;;3.80;1.85;;;17.80;99.90;;;;;;5104875;28;20054;-64
2023/09/21 03:52:45;;;;;;;3.88;1.80;;;17.80;99.90;;;;;;5104970;28;20083;-64
2023/09/21 03:55:15;;;;;;;7.20;2.40;;;17.80;99.90;;;;;;5105362;28;20047;-63
2023/09/21 03:57:46;;;;;;;4.10;2.10;;;17.80;99.90;;;;;;5105036;28;20027;-63
2023/09/21 04:02:54;;;;;;;4.25;2.13;;;17.90;99.90;;;;;;5105177;28;20069;-64
2023/09/21 04:05:23;;;;;;;3.70;1.80;;;17.90;99.90;;;;;;5117605;27;20051;-65
2023/09/21 04:07:49;;;;;;;4.65;2.17;;;17.90;99.90;;;;;;5125972;27;20035;-64
2023/09/21 04:10:15;;;;;;;4.15;2.05;;;17.90;99.90;;;;;;5125465;27;20039;-64
2023/09/21 04:12:42;;;;;;;3.90;1.77;;;17.90;99.90;;;;;;5126266;27;20104;-61
2023/09/21 04:15:08;;;;;;;6.20;2.53;;;17.90;99.90;;;;;;5125489;27;20378;-62
2023/09/21 04:17:35;;;;;;;4.78;2.30;;;17.90;99.90;;;;;;5125398;27;20039;-61
2023/09/21 04:20:10;;;;;;;4.30;2.00;;;17.90;99.90;;;;;;5107093;27;20062;-60
2023/09/21 04:22:39;;;;;;;5.60;2.00;;;17.90;99.90;;;;;;5124812;27;20118;-62
2023/09/21 04:25:07;;;;;;;4.55;2.00;;;17.90;99.90;;;;;;5125755;27;20029;-60
2023/09/21 04:27:35;;;;;;;5.60;2.03;;;17.90;99.90;;;;;;5125061;27;20039;-62
2023/09/21 04:30:02;;;;;;;4.95;2.20;;;17.90;99.90;;;;;;5125779;27;20035;-62
2023/09/21 04:32:28;;;;;;;4.30;1.80;;;17.90;99.90;;;;;;5123998;27;20039;-62
2023/09/21 04:34:54;;;;;;;4.20;1.80;;;17.90;99.90;;;;;;5125182;27;20100;-61
2023/09/21 04:37:20;;;;;;;5.07;2.03;;;17.90;99.90;;;;;;5123915;27;21221;-62
2023/09/21 04:39:45;;;;;;;5.40;1.90;;;17.90;99.90;;;;;;5125221;27;20031;-62
2023/09/21 04:42:12;;;;;;;4.20;2.03;;;17.90;99.90;;;;;;5125321;27;20037;-62
2023/09/21 04:44:38;;;;;;;4.68;1.85;;;17.90;99.90;;;;;;5125311;27;20513;-62
2023/09/21 04:47:05;;;;;;;4.40;1.90;;;17.90;99.90;;;;;;5124776;27;20046;-62
2023/09/21 04:49:31;;;;;;;5.82;2.15;;;17.90;99.90;;;;;;5124529;27;20063;-63
2023/09/21 04:51:57;;;;;;;7.25;1.90;;;17.90;99.90;;;;;;5125344;27;20067;-63
2023/09/21 04:54:22;;;;;;;7.20;2.00;;;17.90;99.90;;;;;;5105313;27;20039;-61
2023/09/21 04:56:51;;;;;;;4.07;1.80;;;17.80;99.90;;;;;;5124941;27;20027;-62
2023/09/21 04:59:20;;;;;;;4.78;1.98;;;17.90;99.90;;;;;;5124617;27;20039;-63
2023/09/21 05:01:47;;;;;;;5.05;2.10;;;17.80;99.90;;;;;;5125090;27;20419;-62
2023/09/21 05:04:13;;;;;;;5.00;1.80;;;17.80;99.90;;;;;;5124550;27;20667;-63
2023/09/21 05:06:39;;;;;;;5.18;1.70;;;17.80;99.90;;;;;;5124676;27;20150;-63
2023/09/21 05:09:05;;;;;;;4.75;2.35;;;17.80;99.90;;;;;;5124652;27;20492;-63
2023/09/21 05:11:38;;;;;;;5.32;2.10;;;17.80;99.90;;;;;;5124545;27;23421;-63
2023/09/21 05:14:05;;;;;;;6.78;2.10;;;17.80;99.90;;;;;;5124394;27;20027;-62
2023/09/21 05:16:34;;;;;;;4.43;2.22;;;17.80;99.90;;;;;;5124726;27;20038;-62
2023/09/21 05:19:00;;;;;;;5.88;2.05;;;17.80;99.90;;;;;;5124443;27;20458;-63
2023/09/21 05:21:26;;;;;;;7.32;2.20;;;17.80;99.90;;;;;;5124477;27;20038;-62
2023/09/21 05:23:55;;;;;;;5.90;2.08;;;17.80;99.90;;;;;;5124045;27;20046;-62
2023/09/21 05:26:20;;;;;;;6.65;2.45;;;17.80;99.90;;;;;;5124647;27;20448;-61
2023/09/21 05:28:46;;;;;;;6.10;2.35;;;17.80;99.90;;;;;;5123550;27;20039;-62
2023/09/21 05:31:12;;;;;;;7.10;2.17;;;17.80;99.90;;;;;;5123043;27;20106;-63
2023/09/21 05:33:38;;;;;;;5.13;2.15;;;17.80;99.90;;;;;;5106334;27;20696;-63
2023/09/21 05:36:07;;;;;;;4.10;1.90;;;17.90;99.90;;;;;;5123328;27;20484;-63
2023/09/21 05:38:33;;;;;;;3.67;1.80;;;17.90;99.90;;;;;;5105011;27;20038;-62
2023/09/21 05:41:06;;;;;;;5.13;2.00;;;17.90;99.90;;;;;;5124410;27;20401;-62
2023/09/21 05:43:32;;;;;;;4.72;1.80;;;17.90;99.90;;;;;;5124035;27;20035;-62
2023/09/21 05:45:57;;;;;;;3.53;1.95;;;17.90;99.90;;;;;;5124422;27;20352;-63
2023/09/21 05:48:23;;;;;;;4.00;1.83;;;18.00;99.90;;;;;;5123871;27;20035;-63
2023/09/21 05:50:52;;;;;;;4.55;2.30;;;18.00;99.90;;;;;;5122629;27;20092;-63
2023/09/21 05:53:20;;;;;;;3.95;2.10;;;18.00;99.90;;;;;;5123688;27;20040;-63
2023/09/21 05:55:45;;;;;;;8.50;2.65;;;18.00;99.90;;;;;;5123454;28;20089;-62
2023/09/21 05:58:11;;;;;;;7.78;2.30;;;18.10;99.90;;;;;;5123741;28;20431;-63
2023/09/21 06:00:37;;;;;;;4.47;2.20;;;18.10;99.90;;;;;;5123814;28;20707;-61
2023/09/21 06:03:03;;;;;;;5.78;2.08;;;18.20;99.90;;;;;;5105230;28;20043;-62
2023/09/21 06:05:31;;;;;;;5.55;2.20;;;18.20;99.90;;;;;;5124140;28;20150;-63
2023/09/21 06:07:57;;;;;;;4.90;2.00;;;18.20;99.90;;;;;;5123262;28;20031;-62
2023/09/21 06:10:24;;;;;;;3.90;2.00;;;18.20;99.90;;;;;;5121668;27;20031;-61
2023/09/21 06:12:53;;;;;;;5.75;2.17;;;18.30;99.90;;;;;;5123651;27;20351;-61
2023/09/21 06:15:18;;;;;;;4.18;1.85;;;18.30;99.90;;;;;;5123679;28;20036;-63
2023/09/21 06:17:46;;;;;;;4.85;2.30;;;18.30;99.90;;;;;;5123636;28;20465;-63
2023/09/21 06:20:12;;;;;;;3.80;1.90;;;18.30;99.90;;;;;;5123874;28;20440;-62
2023/09/21 06:22:38;;;;;;;4.65;1.90;;;18.40;99.90;;;;;;5123503;28;20096;-63
2023/09/21 06:25:06;;;;;;;6.32;2.30;;;18.40;99.90;;;;;;5123995;28;20047;-63
2023/09/21 06:27:37;;;;;;;5.40;2.17;;;18.40;99.90;;;;;;5106061;28;20036;-62
2023/09/21 06:30:03;;;;;;;4.22;2.15;;;18.40;99.90;;;;;;5122887;28;20039;-62
2023/09/21 06:32:29;;;;;;;5.93;2.10;;;18.40;99.90;;;;;;5123532;28;20118;-63
2023/09/21 06:34:55;;;;;;;5.07;2.00;;;18.40;99.90;;;;;;5123940;28;20126;-62
2023/09/21 06:37:22;;;;;;;4.00;1.80;;;18.40;99.90;;;;;;5123246;28;20039;-63
2023/09/21 06:39:48;;;;;;;4.63;2.00;;;18.30;99.90;;;;;;5086457;28;20114;-61
2023/09/21 06:42:16;;;;;;;5.15;2.38;;;18.30;99.90;;;;;;5123616;28;20118;-62
2023/09/21 06:44:43;;;;;;;5.50;1.90;;;18.30;99.90;;;;;;5123229;28;20035;-62
2023/09/21 06:47:12;;;;;;;4.93;2.05;;;18.20;99.90;;;;;;5123463;28;20043;-62
2023/09/21 06:49:38;;;;;;;4.78;1.95;;;18.20;99.90;;;;;;5123261;28;20120;-63
2023/09/21 06:52:04;;;;;;;5.05;2.00;;;18.20;99.90;;;;;;5104495;28;20039;-62
2023/09/21 06:54:30;;;;;;;6.75;2.17;;;18.20;99.90;;;;;;5123063;28;20113;-63
2023/09/21 06:57:03;;;;;;;4.82;1.90;;;18.20;99.90;;;;;;5104076;28;20043;-63
2023/09/21 06:59:38;;;;;;;4.32;2.10;;;18.20;99.90;;;;;;5122818;27;20486;-64
2023/09/21 07:02:04;;;;;;;7.80;2.40;;;18.20;99.90;;;;;;5125742;27;20051;-63
2023/09/21 07:04:33;;;;;;;3.97;2.25;;;18.20;99.90;;;;;;5124511;27;20512;-62
2023/09/21 07:07:04;;;;;;;4.95;2.00;;;18.10;99.90;;;;;;5126988;27;20039;-63
2023/09/21 07:09:35;;;;;;;5.47;2.33;;;18.10;99.90;;;;;;5088968;27;20066;-62
2023/09/21 07:12:02;;;;;;;4.60;2.05;;;18.10;99.90;;;;;;5126444;27;20062;-63
2023/09/21 07:14:28;;;;;;;4.35;2.08;;;18.10;99.90;;;;;;5127046;27;20026;-63
2023/09/21 07:16:55;;;;;;;3.50;2.20;;;18.10;99.90;;;;;;5127135;27;20495;-62
2023/09/21 07:19:20;;;;;;;6.05;2.33;;;18.10;99.90;;;;;;5127443;27;20403;-62
2023/09/21 07:21:46;;;;;;;5.82;2.35;;;18.10;99.90;;;;;;5126054;27;20035;-63
2023/09/21 07:24:12;;;;;;;5.97;2.60;;;18.00;99.90;;;;;;5126284;27;20034;-63
2023/09/21 07:26:38;;;;;;;6.03;2.28;;;18.00;99.90;;;;;;5125625;27;23770;-62
2023/09/21 07:29:07;;;;;;;4.50;2.58;;;18.00;99.90;;;;;;5126947;27;20043;-62
2023/09/21 07:31:33;;;;;;;5.35;2.80;;;17.90;99.90;;;;;;5126279;27;20039;-62
2023/09/21 07:34:02;;;;;;;5.68;2.58;;;17.80;99.90;;;;;;5127099;27;20337;-63
2023/09/21 07:36:27;;;;;;;4.93;2.70;;;17.80;99.90;;;;;;5107608;27;20031;-62
2023/09/21 07:38:53;;;;;;;5.38;2.60;;;17.70;99.90;;;;;;5107580;27;20501;-63
2023/09/21 07:41:20;;;;;;;5.22;2.40;;;17.80;99.90;;;;;;5126401;27;20160;-63
2023/09/21 07:43:45;;;;;;;5.63;2.50;;;17.70;99.90;;;;;;5108085;27;20474;-60
2023/09/21 07:46:11;;;;;;;7.45;2.92;;;17.80;99.90;;;;;;5126481;27;20039;-62
2023/09/21 07:48:37;;;;;;;5.97;2.92;;;17.70;99.90;;;;;;5125697;27;24447;-63
2023/09/21 07:51:06;;;;;;;6.38;2.63;;;17.60;99.90;;;;;;5125486;27;20560;-61
2023/09/21 07:53:32;;;;;;;5.72;3.05;;;17.70;99.90;;;;;;5125499;27;20442;-61
2023/09/21 07:56:01;;;;;;;8.45;2.60;;;17.60;99.90;;;;;;5126250;27;20035;-60
2023/09/21 07:58:26;;;;;;;6.00;2.88;;;17.70;99.90;;;;;;5126159;27;20066;-62
2023/09/21 08:00:55;;;;;;;4.63;2.78;;;17.60;99.90;;;;;;5126413;27;20055;-62
2023/09/21 08:03:25;;;;;;;5.28;2.45;;;17.60;99.90;;;;;;5125729;27;20108;-62
2023/09/21 08:05:54;;;;;;;6.07;2.80;;;17.50;99.90;;;;;;5125428;27;20285;-62
2023/09/21 08:08:20;;;;;;;6.53;2.92;;;17.60;99.90;;;;;;5125949;27;20039;-61
2023/09/21 08:10:47;;;;;;;9.93;6.85;;;17.60;99.90;;;;;;5125421;27;20027;-62
2023/09/21 08:13:12;;;;;;;8.35;5.88;;;17.50;99.90;;;;;;5125455;27;20029;-61
2023/09/21 08:15:38;;;;;;;7.93;4.30;;;17.40;99.90;;;;;;5090068;27;20035;-61
2023/09/21 08:18:06;;;;;;;6.90;3.15;;;17.50;99.90;;;;;;5106885;27;20468;-63
2023/09/21 08:20:32;;;;;;;6.43;3.30;;;17.50;99.90;;;;;;5091391;27;20030;-61
2023/09/21 08:22:58;;;;;;;6.50;3.42;;;17.30;99.90;;;;;;5125240;27;20031;-61
2023/09/21 08:25:24;;;;;;;6.80;3.15;;;17.40;99.90;;;;;;5106623;27;20084;-62
2023/09/21 08:27:49;;;;;;;6.22;3.33;;;17.30;99.90;;;;;;5125443;27;20087;-62
2023/09/21 08:30:15;;;;;;;6.25;3.17;;;17.40;99.90;;;;;;5088589;27;20083;-62
2023/09/21 08:32:41;;;;;;;7.05;3.50;;;17.30;99.90;;;;;;5105342;27;20051;-61
2023/09/21 08:35:08;;;;;;;5.63;3.45;;;17.30;99.90;;;;;;5125301;27;20032;-61
2023/09/21 08:37:35;;;;;;;7.78;3.72;;;17.30;99.90;;;;;;5090164;27;20165;-63
2023/09/21 08:40:05;;;;;;;6.28;3.20;;;17.10;99.90;;;;;;5125685;27;20050;-58
2023/09/21 08:42:32;;;;;;;4.90;2.83;;;16.60;99.90;;;;;;5124861;27;20027;-60
2023/09/21 08:44:59;;;;;;;3.80;1.90;;;16.90;99.90;;;;;;5106933;27;20054;-61
2023/09/21 08:47:28;;;;;;;3.45;1.50;;;16.90;99.90;;;;;;5106239;27;20099;-62
2023/09/21 08:49:54;;;;;;;3.50;1.70;;;16.80;99.90;;;;;;5125359;27;20117;-61
2023/09/21 08:52:21;;;;;;;3.50;1.58;;;16.80;99.90;;;;;;5123917;27;20039;-61
2023/09/21 08:54:48;;;;;;;3.20;1.40;;;16.50;99.90;;;;;;5124704;27;20037;-63
2023/09/21 08:57:14;;;;;;;4.78;1.20;;;16.70;99.90;;;;;;5105351;27;20069;-59
2023/09/21 08:59:44;;;;;;;2.72;1.02;;;16.40;99.90;;;;;;5124740;27;20521;-63
2023/09/21 09:02:13;;;;;;;3.17;1.10;;;16.40;99.90;;;;;;5124619;27;20035;-60
2023/09/21 09:04:42;;;;;;;2.80;1.10;;;16.30;99.90;;;;;;5124245;27;20150;-60
2023/09/21 09:07:10;;;;;;;2.40;0.90;;;16.20;99.90;;;;;;5124869;27;20386;-62
2023/09/21 09:09:39;;;;;;;3.17;1.30;;;16.30;99.90;;;;;;5124245;27;20546;-62
2023/09/21 09:12:25;;;;;;;4.10;1.25;;;16.10;99.90;;;;;;5124494;27;20108;-62
2023/09/21 09:14:52;;;;;;;2.45;0.90;;;16.20;99.90;;;;;;5124154;27;20047;-62
2023/09/21 09:17:18;;;;;;;2.70;1.20;;;16.20;99.90;;;;;;5124591;27;20023;-62
2023/09/21 09:19:46;;;;;;;3.03;1.30;;;16.10;99.90;;;;;;5124414;27;20127;-60
2023/09/21 09:22:15;;;;;;;4.05;1.38;;;15.90;99.90;;;;;;5123666;27;20892;-63
2023/09/21 09:24:40;;;;;;;3.22;1.35;;;15.90;99.90;;;;;;5105049;27;20073;-61
2023/09/21 09:27:06;;;;;;;2.72;1.13;;;16.00;99.90;;;;;;5124885;27;20058;-62
2023/09/21 09:29:33;;;;;;;3.47;1.35;;;16.10;99.90;;;;;;5124735;27;20047;-61
2023/09/21 09:31:59;;;;;;;3.55;1.17;;;16.20;99.90;;;;;;5123740;27;20039;-62
2023/09/21 09:34:28;;;;;;;4.75;1.20;;;16.00;99.90;;;;;;5124168;27;20038;-63
2023/09/21 09:36:55;;;;;;;4.18;1.30;;;16.10;99.90;;;;;;5124185;27;20489;-63
2023/09/21 09:39:23;;;;;;;3.00;1.30;;;16.20;99.90;;;;;;5124439;27;20438;-60
2023/09/21 09:41:50;;;;;;;3.55;1.25;;;16.20;99.90;;;;;;5105524;27;20043;-62
2023/09/21 09:44:24;;;;;;;5.90;1.30;;;16.10;99.90;;;;;;5123049;27;20043;-62
2023/09/21 09:46:54;;;;;;;1.85;1.05;;;16.30;99.90;;;;;;5122894;27;20174;-62
2023/09/21 09:49:21;;;;;;;4.07;1.33;;;16.10;99.90;;;;;;5124516;27;20043;-61
2023/09/21 09:51:53;;;;;;;2.50;1.08;;;16.10;99.90;;;;;;5124198;27;20027;-61
2023/09/21 09:54:21;;;;;;;3.58;1.30;;;16.30;99.90;;;;;;5105419;28;20063;-62
2023/09/21 09:56:51;;;;;;;3.13;1.10;;;16.20;99.90;;;;;;5106436;28;20046;-62
2023/09/21 09:59:19;;;;;;;2.83;1.05;;;16.10;99.90;;;;;;5123691;28;20039;-61
2023/09/21 10:01:45;;;;;;;3.10;1.00;;;16.10;99.90;;;;;;5123787;28;20043;-60
2023/09/21 10:04:12;;;;;;;3.03;1.25;;;16.30;99.90;;;;;;5123316;28;20577;-60
2023/09/21 10:06:41;;;;;;;4.15;1.23;;;16.40;99.90;;;;;;5105262;28;20039;-61
2023/09/21 10:09:13;;;;;;;4.55;1.17;;;16.20;99.90;;;;;;5123683;28;20034;-61
2023/09/21 10:11:48;;;;;;;2.53;0.88;;;16.20;99.90;;;;;;5123767;28;20070;-63
2023/09/21 10:14:17;;;;;;;3.42;0.88;;;16.10;99.90;;;;;;5123132;28;20039;-62
2023/09/21 10:16:53;;;;;;;2.22;0.82;;;16.10;99.90;;;;;;5123510;28;20088;-62
2023/09/21 10:19:29;;;;;;;1.58;0.70;;;16.10;99.90;;;;;;5104444;28;20474;-59
2023/09/21 10:21:59;;;;;;;2.38;0.70;;;16.10;99.90;;;;;;5104615;28;20035;-62
2023/09/21 10:24:29;;;;;;;2.50;0.70;;;15.20;99.90;;;;;;5123262;28;20074;-61
2023/09/21 10:27:01;;;;;;;2.28;0.70;;;16.20;99.90;;;;;;5123867;28;20070;-62
2023/09/21 10:29:32;;;;;;;2.67;0.88;;;16.30;99.90;;;;;;5123137;28;20547;-60
2023/09/21 10:32:04;;;;;;;1.88;0.80;;;16.20;99.90;;;;;;5123840;28;20140;-64
2023/09/21 10:34:31;;;;;;;2.28;0.82;;;16.30;99.90;;;;;;5104781;27;20470;-62
2023/09/21 10:37:10;;;;;;;1.23;0.70;;;16.20;99.90;;;;;;5126523;27;20031;-63
2023/09/21 10:39:39;;;;;;;2.28;0.80;;;16.20;99.90;;;;;;5127849;27;20039;-62
2023/09/21 10:42:06;;;;;;;2.47;0.73;;;16.20;99.90;;;;;;5127077;27;20115;-60
2023/09/21 10:45:04;;;;;;;3.10;0.98;;;16.10;99.90;;;;;;5127370;27;20375;-61
2023/09/21 10:47:33;;;;;;;1.95;0.77;;;16.10;99.90;;;;;;5126768;27;20035;-62
2023/09/21 10:50:07;;;;;;;2.83;0.95;;;16.20;99.90;;;;;;5127648;27;20090;-61
2023/09/21 10:52:33;;;;;;;4.37;0.97;;;16.00;99.90;;;;;;5127138;27;20074;-61
2023/09/21 10:54:59;;;;;;;1.88;0.70;;;16.10;99.90;;;;;;5126709;27;20379;-61
2023/09/21 10:57:26;;;;;;;2.42;0.90;;;16.00;99.90;;;;;;5108237;27;20122;-62
2023/09/21 10:59:58;;;;;;;2.17;1.00;;;16.00;99.90;;;;;;5127102;27;20075;-61
2023/09/21 11:02:24;;;;;;;2.72;0.80;;;16.30;99.90;;;;;;5127081;27;20138;-62
2023/09/21 11:04:52;;;;;;;1.60;0.60;;;16.30;99.90;;;;;;5126877;27;20138;-60
2023/09/21 11:07:19;;;;;;;2.10;0.90;;;16.20;99.90;;;;;;5127220;27;20088;-61
2023/09/21 11:09:45;;;;;;;2.92;0.80;;;16.30;99.90;;;;;;5127179;27;20490;-63
2023/09/21 11:12:13;;;;;;;2.50;0.90;;;16.10;99.90;;;;;;5127289;27;20424;-61
2023/09/21 11:14:43;;;;;;;2.75;0.88;;;16.10;99.90;;;;;;5126412;27;21037;-63
2023/09/21 11:17:11;;;;;;;2.97;1.00;;;16.10;99.90;;;;;;5126560;27;20031;-61
2023/09/21 11:19:41;;;;;;;2.08;0.98;;;16.10;99.90;;;;;;5127069;27;20023;-61
2023/09/21 11:22:08;;;;;;;2.28;1.20;;;16.00;99.90;;;;;;5127120;27;20447;-61
2023/09/21 11:24:36;;;;;;;1.70;0.90;;;16.10;99.90;;;;;;5125606;27;20035;-62
2023/09/21 11:27:03;;;;;;;2.70;1.00;;;16.00;99.90;;;;;;5127022;27;20474;-61
2023/09/21 11:29:29;;;;;;;2.92;0.90;;;16.00;99.90;;;;;;5126230;27;20043;-62
2023/09/21 11:31:55;;;;;;;2.65;0.98;;;15.80;99.90;;;;;;5107833;27;20490;-61
2023/09/21 11:34:21;;;;;;;2.92;1.10;;;16.00;99.90;;;;;;5126611;27;20091;-61
2023/09/21 11:36:49;;;;;;;3.45;1.25;;;15.80;99.90;;;;;;5126954;27;20031;-61
2023/09/21 11:39:15;;;;;;;3.38;1.10;;;15.90;99.90;;;;;;5126062;27;20445;-61
2023/09/21 11:41:40;;;;;;;2.25;1.00;;;15.80;99.90;;;;;;5108945;27;20130;-61
2023/09/21 11:44:06;;;;;;;2.10;1.02;;;16.00;99.90;;;;;;5126393;27;20071;-62
2023/09/21 11:46:32;;;;;;;2.83;1.35;;;15.90;99.90;;;;;;5125747;27;20047;-62
2023/09/21 11:48:58;;;;;;;2.85;1.38;;;15.80;99.90;;;;;;5106503;27;20092;-59
2023/09/21 11:51:28;;;;;;;2.95;1.20;;;15.70;99.90;;;;;;5126590;27;20463;-61
2023/09/21 11:53:58;;;;;;;2.35;1.10;;;15.90;99.90;;;;;;5125732;27;20023;-63
2023/09/21 11:56:26;;;;;;;2.10;1.02;;;15.90;99.90;;;;;;5125833;27;20788;-61
2023/09/21 11:58:58;;;;;;;2.58;1.20;;;15.90;99.90;;;;;;5125984;27;20129;-61
2023/09/21 12:01:27;;;;;;;2.83;1.35;;;15.90;99.90;;;;;;5126275;27;20031;-61
2023/09/21 12:03:54;;;;;;;2.78;0.90;;;15.90;99.90;;;;;;5108448;27;20103;-62
2023/09/21 12:06:19;;;;;;;2.10;0.90;;;16.00;99.90;;;;;;5125292;27;20041;-60
2023/09/21 12:08:45;;;;;;;3.45;1.00;;;16.10;99.90;;;;;;5125857;27;20474;-61
2023/09/21 12:11:14;;;;;;;2.05;0.70;;;16.10;99.90;;;;;;5125276;27;20589;-61
2023/09/21 12:13:39;;;;;;;1.80;0.68;;;16.00;99.90;;;;;;5125293;27;20080;-61
2023/09/21 12:16:07;;;;;;;2.38;1.00;;;16.00;99.90;;;;;;5125828;27;20031;-62
2023/09/21 12:18:32;;;;;;;1.73;0.90;;;16.00;99.90;;;;;;5125171;27;20057;-61
2023/09/21 12:21:00;;;;;;;1.80;0.70;;;16.10;99.90;;;;;;5125961;27;20386;-61
2023/09/21 12:23:26;;;;;;;3.15;0.75;;;16.00;99.90;;;;;;5125206;27;20710;-61
2023/09/21 12:25:53;;;;;;;2.40;0.80;;;16.10;99.90;;;;;;5125860;27;20437;-62
2023/09/21 12:28:19;;;;;;;2.45;0.88;;;16.10;99.90;;;;;;5107238;27;20111;-62
2023/09/21 12:30:47;;;;;;;1.70;0.80;;;16.20;99.90;;;;;;5108015;27;20044;-61
2023/09/21 12:33:15;;;;;;;3.25;0.82;;;16.20;99.90;;;;;;5125330;27;20384;-63
2023/09/21 12:35:41;;;;;;;1.70;0.77;;;16.10;99.90;;;;;;5125503;27;20042;-60
2023/09/21 12:38:07;;;;;;;1.50;0.70;;;16.20;99.90;;;;;;5124901;27;20118;-62
2023/09/21 12:40:32;;;;;;;2.63;0.98;;;16.10;99.90;;;;;;5125591;27;20546;-62
2023/09/21 12:42:58;;;;;;;2.53;0.93;;;16.20;99.90;;;;;;5125608;27;20398;-62
2023/09/21 12:45:24;;;;;;;2.25;0.80;;;16.10;99.90;;;;;;5125017;27;20118;-62
2023/09/21 12:47:50;;;;;;;3.15;1.13;;;16.00;99.90;;;;;;5106434;27;20035;-61
2023/09/21 12:50:17;;;;;;;1.83;0.70;;;15.90;99.90;;;;;;5125205;27;20073;-61
2023/09/21 12:52:43;;;;;;;2.90;1.00;;;15.90;99.90;;;;;;5125631;27;20050;-63